Grants Pass, OR (97526)

10:23 PM PDT on March 27, 2015 (GMT -0700)
Northwest Grants Pass | | Change Station
CLOSE
Current Station
Personal Weather Station
Location: Grants Pass, OR
Elevation: 1037 ft
Nearby Weather Stations

Elev 1037 ft 42.45 °N, 123.33 °W | Updated 5 minutes ago

Overcast
Overcast
52.3 °F
Feels Like 52.3 °F
N
0.0
Wind Variable Wind from SW
Gusts 0.0 mph

Today
High -- | Low -- °F
--% Chance of Precip.
Yesterday
High -- | Low -- °F
Precip. -- in
7:04 AM 7:33 PM
First Quarter, 59% visible
Pressure 30.20 in
Visibility 10.0 miles
Clouds Overcast 6500 ft
Dew Point 50 °F
Humidity 92%
Rainfall 0.05 in
Snow Depth Not available.
UV 0.0 out of 12
Pollen 9.70 out of 12
Air Quality Not available.
Flu Activity Not available.
METAR KMFR 280453Z AUTO 28014KT 10SM OVC065 15/06 A3021 RMK AO2 SLP227 T01500056

More Conditions Fewer Conditions

Pressure 30.20 in
Visibility 10.0 miles
Clouds Overcast 6500 ft
Dew Point 50 °F
Humidity 92%
Rainfall 0.05 in
Snow Depth Not available.
UV 0.0 out of 12
Pollen 9.70 out of 12
Air Quality Not available.
Flu Activity Not available.
METAR KMFR 280453Z AUTO 28014KT 10SM OVC065 15/06 A3021 RMK AO2 SLP227 T01500056

More Conditions Fewer Conditions

10-Day Weather Forecast

Almanac

Astronomy

Mar. 27, 2015 Rise Set
Actual Time
Civil Twilight
Nautical Twilight
Astronomical Twilight
Moon
Length of Visible Light
Length of Day
Tomorrow will be .
, % of the Moon is Illuminated

Today's Extremes

State Highs State Lows

Community

WunderPhotos

Upload Photos

1,808,934 photos uploaded!

WunderBlogs® & News

Nearby

Air Quality

  Air Quality AQ Index Pollutant
Not available.

Snow Depth

Station Depth Elevation

Earthquake Activity

City Distance Mag. Time & Date
Minimum magnitude displayed is 2.5.

Coastal Water Temperatures

Place Temperature

Stations

Nearby Weather Stations

Station Location Temp. Windchill Dew Point Humidity Wind Precip. Elev Updated Type